createdAt,value
2022-12-15T00:00:51.077Z,100400.91
2022-12-15T00:03:33.872Z,100411.47
2022-12-15T00:06:16.563Z,100411.66
2022-12-15T00:08:58.675Z,100403.09
2022-12-15T00:11:40.828Z,100404.06
2022-12-15T00:14:24.146Z,100395.53
2022-12-15T00:17:08.851Z,100398.91
2022-12-15T00:19:50.953Z,100398.13
2022-12-15T00:22:33.067Z,100407.66
2022-12-15T00:25:15.400Z,100416.31
2022-12-15T00:27:57.559Z,100420.63
2022-12-15T00:30:39.695Z,100424.91
2022-12-15T00:33:27.634Z,100429.28
2022-12-15T00:36:09.897Z,100420.63
2022-12-15T00:38:46.263Z,100412.97
2022-12-15T00:41:17.647Z,100418.31
2022-12-15T00:43:48.105Z,100421.03
2022-12-15T00:46:32.843Z,100421.03
2022-12-15T00:49:25.844Z,100421.81
2022-12-15T00:52:07.939Z,100418.91
2022-12-15T00:54:50.019Z,100418.72
2022-12-15T00:57:32.146Z,100415.94
2022-12-15T01:00:14.249Z,100419.13
2022-12-15T01:02:56.715Z,100418.16
2022-12-15T01:05:41.515Z,100417.22
2022-12-15T01:08:23.611Z,100421.22
2022-12-15T01:11:05.716Z,100421.03
2022-12-15T01:13:49.753Z,100418.13
2022-12-15T01:16:32.437Z,100433.66
2022-12-15T01:19:14.572Z,100429.88
2022-12-15T01:21:46.900Z,100434.66
2022-12-15T01:24:16.615Z,100430.75
2022-12-15T01:26:46.355Z,100431.38
2022-12-15T01:29:16.073Z,100432.06
2022-12-15T01:31:50.043Z,100436.13
2022-12-15T01:34:22.802Z,100435.03
2022-12-15T01:36:55.207Z,100435.94
2022-12-15T01:39:24.953Z,100442.81
2022-12-15T01:41:52.036Z,100442.69
2022-12-15T01:44:23.626Z,100441.78
2022-12-15T01:46:58.960Z,100441.88
2022-12-15T01:49:32.220Z,100446.09
2022-12-15T01:52:07.280Z,100450.66
2022-12-15T01:54:41.692Z,100439.53
2022-12-15T01:57:17.440Z,100446.66
2022-12-15T01:59:51.856Z,100464.72
2022-12-15T02:02:24.375Z,100464.59
2022-12-15T02:04:56.755Z,100465.16
2022-12-15T02:07:29.548Z,100478.72
2022-12-15T02:10:02.939Z,100488.16
2022-12-15T02:12:40.385Z,100487.47
2022-12-15T02:15:20.376Z,100490.28
2022-12-15T02:18:00.247Z,100480.00
2022-12-15T02:20:50.628Z,100478.72
2022-12-15T02:23:57.521Z,100477.56
2022-12-15T02:27:15.775Z,100466.94
2022-12-15T02:30:18.722Z,100470.03
2022-12-15T02:32:56.575Z,100472.91
2022-12-15T02:35:34.096Z,100472.31
2022-12-15T02:38:03.812Z,100466.44
2022-12-15T02:40:33.534Z,100463.06
2022-12-15T02:43:06.009Z,100464.84
2022-12-15T02:45:50.570Z,100468.25
2022-12-15T02:48:30.140Z,100467.13
2022-12-15T02:51:22.592Z,100462.88
2022-12-15T02:54:06.409Z,100458.41
2022-12-15T02:56:44.327Z,100467.94
2022-12-15T02:59:19.845Z,100463.56
2022-12-15T03:01:57.177Z,100472.22
2022-12-15T03:04:29.416Z,100471.22
2022-12-15T03:07:01.472Z,100484.75
2022-12-15T03:09:31.355Z,100488.84
2022-12-15T03:12:01.440Z,100484.03
2022-12-15T03:14:31.216Z,100481.75
2022-12-15T03:17:04.260Z,100477.16
2022-12-15T03:19:33.968Z,100467.59
2022-12-15T03:22:04.380Z,100457.25
2022-12-15T03:24:34.088Z,100460.81
2022-12-15T03:27:03.813Z,100461.03
2022-12-15T03:29:33.672Z,100461.25
2022-12-15T03:32:06.386Z,100456.25
2022-12-15T03:34:36.338Z,100456.25
2022-12-15T03:37:09.291Z,100458.97
2022-12-15T03:39:39.003Z,100458.28
2022-12-15T03:42:08.811Z,100462.84
2022-12-15T03:44:39.696Z,100458.84
2022-12-15T03:47:12.031Z,100459.06
2022-12-15T03:49:41.754Z,100459.28
2022-12-15T03:52:11.499Z,100464.75
2022-12-15T03:54:41.199Z,100470.13
2022-12-15T03:57:10.985Z,100468.75
2022-12-15T03:59:40.751Z,100474.22
2022-12-15T04:02:14.811Z,100477.91
2022-12-15T04:04:44.718Z,100479.69
2022-12-15T04:07:14.433Z,100471.13
2022-12-15T04:09:44.376Z,100470.44
2022-12-15T04:12:14.640Z,100468.75
2022-12-15T04:14:44.495Z,100466.25
2022-12-15T04:17:17.595Z,100471.44
2022-12-15T04:19:59.718Z,100459.25
2022-12-15T04:22:29.474Z,100464.38
2022-12-15T04:25:11.569Z,100469.44
2022-12-15T04:27:58.409Z,100474.44
2022-12-15T04:30:43.670Z,100480.19
2022-12-15T04:33:30.833Z,100480.81
2022-12-15T04:36:13.405Z,100471.84
2022-12-15T04:38:55.849Z,100475.13
2022-12-15T04:41:39.832Z,100472.41
2022-12-15T04:44:22.576Z,100468.94
2022-12-15T04:47:04.694Z,100472.31
2022-12-15T04:49:49.420Z,100464.47
2022-12-15T04:52:31.538Z,100470.63
2022-12-15T04:55:13.637Z,100461.06
2022-12-15T04:57:56.158Z,100459.06
2022-12-15T05:00:38.280Z,100459.75
2022-12-15T05:03:20.776Z,100466.75
2022-12-15T05:06:05.471Z,100468.44
2022-12-15T05:08:47.559Z,100460.44
2022-12-15T05:11:32.393Z,100463.03
2022-12-15T05:14:14.489Z,100469.03
2022-12-15T05:16:56.628Z,100472.41
2022-12-15T05:19:38.771Z,100476.78
2022-12-15T05:22:23.469Z,100474.19
2022-12-15T05:25:05.580Z,100473.38
2022-12-15T05:27:47.752Z,100473.31
2022-12-15T05:30:29.972Z,100471.50
2022-12-15T05:32:59.791Z,100473.13
2022-12-15T05:35:29.491Z,100471.28
2022-12-15T05:38:01.830Z,100469.59
2022-12-15T05:40:31.546Z,100461.75
2022-12-15T05:43:01.719Z,100468.50
2022-12-15T05:45:31.685Z,100464.84
2022-12-15T05:48:01.440Z,100471.41
2022-12-15T05:50:31.143Z,100468.59
2022-12-15T05:53:03.871Z,100473.69
2022-12-15T05:55:33.572Z,100468.69
2022-12-15T05:58:03.327Z,100470.28
2022-12-15T06:00:33.056Z,100478.16
2022-12-15T06:03:03.039Z,100477.34
2022-12-15T06:05:32.783Z,100482.44
2022-12-15T06:08:05.528Z,100471.28
2022-12-15T06:10:35.265Z,100479.94
2022-12-15T06:13:05.448Z,100479.16
2022-12-15T06:15:35.183Z,100480.13
2022-12-15T06:18:04.892Z,100478.47
2022-12-15T06:20:34.625Z,100478.34
2022-12-15T06:23:07.008Z,100495.78
2022-12-15T06:25:36.712Z,100500.16
2022-12-15T06:28:06.636Z,100492.50
2022-12-15T06:30:36.352Z,100502.06
2022-12-15T06:33:06.164Z,100496.09
2022-12-15T06:35:39.497Z,100490.03
2022-12-15T06:38:11.896Z,100496.19
2022-12-15T06:40:42.167Z,100497.09
2022-12-15T06:43:12.014Z,100493.72
2022-12-15T06:45:41.757Z,100493.81
2022-12-15T06:48:11.496Z,100488.72
2022-12-15T06:50:41.604Z,100495.91
2022-12-15T06:53:14.080Z,100489.94
2022-12-15T06:55:44.416Z,100504.69
2022-12-15T06:58:15.113Z,100507.28
2022-12-15T07:00:47.033Z,100509.94
2022-12-15T07:03:19.081Z,100513.34
2022-12-15T07:05:49.966Z,100518.59
2022-12-15T07:08:27.084Z,100516.94
2022-12-15T07:11:00.155Z,100526.38
2022-12-15T07:13:30.207Z,100528.19
2022-12-15T07:16:01.893Z,100534.16
2022-12-15T07:18:32.156Z,100536.84
2022-12-15T07:21:06.096Z,100537.75
2022-12-15T07:23:54.023Z,100539.63
2022-12-15T07:26:24.946Z,100538.75
2022-12-15T07:28:56.411Z,100547.72
2022-12-15T07:31:26.460Z,100539.16
2022-12-15T07:33:56.729Z,100544.53
2022-12-15T07:36:27.579Z,100542.97
2022-12-15T07:39:04.999Z,100544.84
2022-12-15T07:41:35.569Z,100544.84
2022-12-15T07:44:06.331Z,100551.00
2022-12-15T07:46:36.151Z,100552.13
2022-12-15T07:49:06.025Z,100558.41
2022-12-15T07:51:36.014Z,100555.03
2022-12-15T07:54:08.601Z,100555.31
2022-12-15T07:56:39.458Z,100558.13
2022-12-15T07:59:10.836Z,100557.31
2022-12-15T08:01:40.674Z,100554.84
2022-12-15T08:04:10.633Z,100555.03
2022-12-15T08:06:51.322Z,100562.94
2022-12-15T08:09:24.317Z,100563.91
2022-12-15T08:11:54.211Z,100564.91
2022-12-15T08:14:24.794Z,100578.97
2022-12-15T08:16:57.250Z,100575.69
2022-12-15T08:19:27.199Z,100578.28
2022-12-15T08:21:56.971Z,100581.94
2022-12-15T08:24:29.416Z,100582.25
2022-12-15T08:26:59.534Z,100583.25
2022-12-15T08:32:19.477Z,100603.00
2022-12-15T08:34:50.141Z,100592.94
2022-12-15T08:37:20.009Z,100596.72
2022-12-15T08:39:52.562Z,100597.78
2022-12-15T08:42:22.473Z,100595.44
2022-12-15T08:44:52.704Z,100592.22
2022-12-15T08:47:22.533Z,100588.91
2022-12-15T08:49:53.316Z,100583.94
2022-12-15T08:52:23.527Z,100579.03
2022-12-15T08:54:56.282Z,100586.31
2022-12-15T08:57:26.228Z,100588.41
2022-12-15T08:59:56.198Z,100594.66
2022-12-15T09:02:26.249Z,100590.47
2022-12-15T09:04:56.204Z,100584.59
2022-12-15T09:07:26.177Z,100588.97
2022-12-15T09:09:58.737Z,100590.59
2022-12-15T09:12:28.782Z,100593.06
2022-12-15T09:14:58.634Z,100598.16
2022-12-15T09:17:28.502Z,100607.66
2022-12-15T09:19:58.489Z,100596.38
2022-12-15T09:22:28.462Z,100592.97
2022-12-15T09:25:00.984Z,100587.78
2022-12-15T09:27:30.965Z,100607.75
2022-12-15T09:30:01.358Z,100598.38
2022-12-15T09:32:31.563Z,100602.63
2022-12-15T09:35:01.414Z,100612.53
2022-12-15T09:37:33.478Z,100613.50
2022-12-15T09:40:06.905Z,100618.28
2022-12-15T09:42:36.998Z,100618.50
2022-12-15T09:45:12.018Z,100627.47
2022-12-15T09:47:50.868Z,100626.78
2022-12-15T09:50:26.510Z,100641.63
2022-12-15T09:52:59.013Z,100642.59
2022-12-15T09:55:33.332Z,100629.63
2022-12-15T10:01:04.850Z,100622.84
2022-12-15T10:03:48.129Z,100627.13
2022-12-15T10:06:25.899Z,100616.75
2022-12-15T10:09:03.396Z,100625.53
2022-12-15T10:11:50.724Z,100617.94
2022-12-15T10:14:31.247Z,100617.13
2022-12-15T10:17:15.219Z,100612.31
2022-12-15T10:19:52.572Z,100609.84
2022-12-15T10:22:27.106Z,100604.91
2022-12-15T10:25:09.732Z,100604.19
2022-12-15T10:28:02.694Z,100600.09
2022-12-15T10:30:32.961Z,100612.38
2022-12-15T10:33:06.360Z,100617.84
2022-12-15T10:35:39.832Z,100605.75
2022-12-15T10:38:28.432Z,100620.69
2022-12-15T10:41:04.261Z,100613.13
2022-12-15T10:43:39.357Z,100615.09
2022-12-15T10:46:18.976Z,100611.00
2022-12-15T10:48:52.256Z,100615.28
2022-12-15T10:51:31.386Z,100616.34
2022-12-15T10:54:09.942Z,100613.94
2022-12-15T10:56:51.516Z,100607.03
2022-12-15T10:59:35.974Z,100607.25
2022-12-15T11:02:33.245Z,100605.72
2022-12-15T11:05:10.703Z,100611.19
2022-12-15T11:07:55.365Z,100603.47
2022-12-15T11:10:49.914Z,100614.06
2022-12-15T11:13:19.255Z,100617.03
2022-12-15T11:15:54.971Z,100615.50
2022-12-15T11:18:32.497Z,100614.88
2022-12-15T11:21:07.441Z,100613.53
2022-12-15T11:23:51.009Z,100609.56
2022-12-15T11:26:35.333Z,100609.06
2022-12-15T11:29:13.090Z,100601.50
2022-12-15T11:31:48.776Z,100603.47
2022-12-15T11:34:22.908Z,100606.91
2022-12-15T11:37:17.675Z,100605.34
2022-12-15T11:40:01.628Z,100607.06
2022-12-15T11:42:43.393Z,100606.34
2022-12-15T11:45:23.988Z,100605.63
2022-12-15T11:48:04.572Z,100603.28
2022-12-15T11:50:42.653Z,100604.19
2022-12-15T11:53:27.818Z,100593.94
2022-12-15T11:56:06.378Z,100600.97
2022-12-15T11:58:57.493Z,100609.81
2022-12-15T12:01:57.046Z,100604.72
2022-12-15T12:04:40.125Z,100604.06
2022-12-15T12:07:18.470Z,100608.66
2022-12-15T12:10:06.035Z,100601.84
2022-12-15T12:12:45.811Z,100601.28
2022-12-15T12:15:33.205Z,100597.13
2022-12-15T12:18:10.096Z,100597.31
2022-12-15T12:20:50.313Z,100600.88
2022-12-15T12:23:25.409Z,100600.16
2022-12-15T12:26:03.852Z,100610.75
2022-12-15T12:28:45.923Z,100604.09
2022-12-15T12:31:28.256Z,100604.31
2022-12-15T12:34:04.644Z,100613.94
2022-12-15T12:36:37.285Z,100606.22
2022-12-15T12:39:10.594Z,100607.13
2022-12-15T12:41:49.387Z,100600.31
2022-12-15T12:44:29.056Z,100609.78
2022-12-15T12:47:00.800Z,100601.97
2022-12-15T12:49:34.945Z,100603.84
2022-12-15T12:52:09.670Z,100605.56
2022-12-15T12:54:45.705Z,100595.97
2022-12-15T12:57:40.193Z,100590.78
2022-12-15T13:00:28.250Z,100592.50
2022-12-15T13:03:20.323Z,100588.25
2022-12-15T13:05:54.811Z,100592.66
2022-12-15T13:08:50.981Z,100591.03
2022-12-15T13:12:15.104Z,100587.50
2022-12-15T13:14:52.111Z,100586.63
2022-12-15T13:17:32.329Z,100583.28
2022-12-15T13:20:22.797Z,100577.28
2022-12-15T13:22:53.635Z,100575.56
2022-12-15T13:25:53.685Z,100575.47
2022-12-15T13:28:34.399Z,100574.44
2022-12-15T13:31:40.143Z,100572.63
2022-12-15T13:34:29.401Z,100577.81
2022-12-15T13:37:03.564Z,100569.78
2022-12-15T13:39:55.419Z,100568.88
2022-12-15T13:42:51.345Z,100568.72
2022-12-15T13:45:51.468Z,100577.34
2022-12-15T13:48:28.693Z,100565.06
2022-12-15T13:51:24.256Z,100568.53
2022-12-15T13:53:59.450Z,100561.38
2022-12-15T13:56:55.741Z,100565.59
2022-12-15T13:59:44.221Z,100573.34
2022-12-15T14:02:28.015Z,100574.22
2022-12-15T14:05:10.219Z,100566.41
2022-12-15T14:07:40.689Z,100569.84
2022-12-15T14:10:21.285Z,100571.63
2022-12-15T14:12:53.952Z,100581.19
2022-12-15T14:15:30.444Z,100586.50
2022-12-15T14:18:03.142Z,100585.63
2022-12-15T14:20:41.246Z,100581.03
2022-12-15T14:23:22.028Z,100590.56
2022-12-15T14:25:59.969Z,100587.06
2022-12-15T14:28:32.932Z,100590.47
2022-12-15T14:31:17.964Z,100587.06
2022-12-15T14:33:50.909Z,100584.31
2022-12-15T14:36:23.763Z,100593.00
2022-12-15T14:38:55.613Z,100585.97
2022-12-15T14:41:30.498Z,100586.91
2022-12-15T14:44:36.156Z,100582.59
2022-12-15T14:46:56.329Z,100588.59
2022-12-15T14:49:30.231Z,100588.53
2022-12-15T14:52:03.881Z,100583.31
2022-12-15T14:54:37.683Z,100583.22
2022-12-15T14:57:17.432Z,100576.31
2022-12-15T14:59:49.286Z,100580.63
2022-12-15T15:02:26.963Z,100575.34
2022-12-15T15:03:03.658Z,100632.31
2022-12-15T15:05:07.477Z,100579.63
2022-12-15T15:07:40.204Z,100574.34
2022-12-15T15:10:24.984Z,100569.00
2022-12-15T15:12:56.100Z,100572.38
2022-12-15T15:15:29.401Z,100560.19
2022-12-15T15:18:03.157Z,100562.69
2022-12-15T15:20:36.093Z,100564.41
2022-12-15T15:23:15.067Z,100567.75
2022-12-15T15:25:52.355Z,100560.72
2022-12-15T15:28:27.603Z,100556.44
2022-12-15T15:31:00.706Z,100566.75
2022-12-15T15:33:36.451Z,100572.13
2022-12-15T15:36:14.116Z,100567.75
2022-12-15T15:38:46.812Z,100570.25
2022-12-15T15:41:20.361Z,100570.25
2022-12-15T15:43:50.674Z,100571.84
2022-12-15T15:46:23.731Z,100577.06
2022-12-15T15:48:58.613Z,100569.97
2022-12-15T15:51:30.368Z,100583.91
2022-12-15T15:54:03.833Z,100585.53
2022-12-15T15:56:34.625Z,100581.94
2022-12-15T15:59:13.908Z,100588.91
2022-12-15T16:01:43.828Z,100592.44
2022-12-15T16:04:16.260Z,100588.13
2022-12-15T16:06:47.801Z,100586.41
2022-12-15T16:09:19.435Z,100592.44
2022-12-15T16:11:49.721Z,100588.03
2022-12-15T16:14:21.480Z,100597.53
2022-12-15T16:17:01.460Z,100591.28
2022-12-15T16:19:39.358Z,100592.06
2022-12-15T16:22:11.910Z,100585.81
2022-12-15T16:24:41.672Z,100586.59
2022-12-15T16:27:15.884Z,100589.19
2022-12-15T16:29:45.701Z,100591.00
2022-12-15T16:32:15.664Z,100592.78
2022-12-15T16:34:49.839Z,100592.00
2022-12-15T16:37:28.808Z,100592.00
2022-12-15T16:39:58.594Z,100600.59
2022-12-15T16:42:31.062Z,100603.13
2022-12-15T16:45:01.517Z,100597.94
2022-12-15T16:47:31.279Z,100609.22
2022-12-15T16:50:05.920Z,100610.00
2022-12-15T16:52:35.937Z,100611.88
2022-12-15T16:55:06.112Z,100607.59
2022-12-15T16:57:36.216Z,100609.38
2022-12-15T17:00:13.751Z,100610.44
2022-12-15T17:02:44.900Z,100621.06
2022-12-15T17:05:17.760Z,100616.75
2022-12-15T17:07:52.648Z,100615.91
2022-12-15T17:10:25.364Z,100617.72
2022-12-15T17:12:57.167Z,100623.00
2022-12-15T17:15:29.427Z,100622.28
2022-12-15T17:17:59.693Z,100630.91
2022-12-15T17:20:33.351Z,100635.22
2022-12-15T17:23:07.314Z,100635.84
2022-12-15T17:28:33.337Z,100628.84
2022-12-15T17:31:03.523Z,100625.34
2022-12-15T17:33:37.532Z,100628.66
2022-12-15T17:36:18.442Z,100624.16
2022-12-15T17:38:48.537Z,100633.53
2022-12-15T17:41:42.499Z,100632.34
2022-12-15T17:44:33.019Z,100637.56
2022-12-15T17:47:04.717Z,100636.50
2022-12-15T17:49:37.306Z,100636.50
2022-12-15T17:52:19.548Z,100636.50
2022-12-15T17:54:49.429Z,100643.38
2022-12-15T17:57:19.226Z,100647.69
2022-12-15T17:59:49.217Z,100653.72
2022-12-15T18:02:19.200Z,100647.63
2022-12-15T18:04:49.001Z,100644.91
2022-12-15T18:07:25.679Z,100651.91
2022-12-15T18:09:56.393Z,100648.31
2022-12-15T18:12:28.407Z,100659.63
2022-12-15T18:14:59.378Z,100669.94
2022-12-15T18:17:29.185Z,100674.22
2022-12-15T18:19:58.935Z,100675.22
2022-12-15T18:22:31.288Z,100681.31
2022-12-15T18:25:01.052Z,100671.63
2022-12-15T18:27:32.374Z,100679.34
2022-12-15T18:30:02.209Z,100691.34
2022-12-15T18:32:38.269Z,100680.75
2022-12-15T18:35:16.173Z,100691.09
2022-12-15T18:37:48.987Z,100697.19
2022-12-15T18:40:20.863Z,100699.97
2022-12-15T18:42:51.630Z,100708.75
2022-12-15T18:45:28.386Z,100705.25
2022-12-15T18:47:58.423Z,100716.56
2022-12-15T18:50:29.088Z,100720.94
2022-12-15T18:53:04.930Z,100715.72
2022-12-15T18:55:35.091Z,100711.34
2022-12-15T18:58:04.785Z,100720.03
2022-12-15T19:00:35.075Z,100720.88
2022-12-15T19:03:05.024Z,100722.53
2022-12-15T19:05:36.144Z,100727.66
2022-12-15T19:08:14.123Z,100727.56
2022-12-15T19:10:51.009Z,100729.28
2022-12-15T19:13:23.336Z,100741.28
2022-12-15T19:15:53.524Z,100734.19
2022-12-15T19:18:37.988Z,100743.69
2022-12-15T19:21:29.890Z,100754.00
2022-12-15T19:24:02.678Z,100756.41
2022-12-15T19:26:32.589Z,100761.53
2022-12-15T19:29:02.379Z,100772.66
2022-12-15T19:31:32.175Z,100775.03
2022-12-15T19:34:02.155Z,100774.13
2022-12-15T19:36:36.519Z,100788.75
2022-12-15T19:39:11.188Z,100773.97
2022-12-15T19:41:41.063Z,100784.25
2022-12-15T19:44:17.215Z,100780.75
2022-12-15T19:46:47.359Z,100785.78
2022-12-15T19:49:17.241Z,100786.47
2022-12-15T19:51:46.996Z,100782.88
2022-12-15T19:54:23.786Z,100790.56
2022-12-15T19:56:53.467Z,100795.75
2022-12-15T19:59:29.656Z,100794.69
2022-12-15T20:01:59.634Z,100788.50
2022-12-15T20:04:29.517Z,100797.19
2022-12-15T20:06:59.248Z,100796.22
2022-12-15T20:09:31.820Z,100805.78
2022-12-15T20:12:01.560Z,100800.47
2022-12-15T20:14:31.257Z,100797.81
2022-12-15T20:17:01.054Z,100811.59
2022-12-15T20:19:30.799Z,100806.31
2022-12-15T20:22:01.379Z,100803.53
2022-12-15T20:24:35.228Z,100816.50
2022-12-15T20:27:10.194Z,100816.28
2022-12-15T20:29:41.564Z,100820.53
2022-12-15T20:32:17.722Z,100819.59
2022-12-15T20:34:47.888Z,100822.91
2022-12-15T20:37:21.958Z,100838.50
2022-12-15T20:39:57.621Z,100843.59
2022-12-15T20:42:28.167Z,100839.19
2022-12-15T20:44:58.074Z,100854.88
2022-12-15T20:47:30.460Z,100853.19
2022-12-15T20:50:00.227Z,100852.28
2022-12-15T20:52:30.166Z,100842.69
2022-12-15T20:55:03.187Z,100845.28
2022-12-15T20:57:33.050Z,100848.38
2022-12-15T21:00:02.767Z,100855.38
2022-12-15T21:02:32.790Z,100849.59
2022-12-15T21:05:03.631Z,100849.59
2022-12-15T21:07:33.359Z,100850.50
2022-12-15T21:10:05.823Z,100852.28
2022-12-15T21:12:35.539Z,100848.78
2022-12-15T21:15:05.240Z,100861.09
2022-12-15T21:17:38.660Z,100859.50
2022-12-15T21:20:12.571Z,100868.38
2022-12-15T21:22:43.257Z,100871.97
2022-12-15T21:25:29.215Z,100873.09
2022-12-15T21:27:58.948Z,100867.88
2022-12-15T21:30:28.795Z,100868.84
2022-12-15T21:32:58.736Z,100872.06
2022-12-15T21:35:31.769Z,100879.69
2022-12-15T21:38:02.071Z,100889.84
2022-12-15T21:40:34.564Z,100888.25
2022-12-15T21:43:07.032Z,100887.47
2022-12-15T21:45:36.733Z,100897.84
2022-12-15T21:48:31.145Z,100906.63
2022-12-15T21:51:01.035Z,100917.94
2022-12-15T21:53:30.781Z,100928.31
2022-12-15T21:56:03.107Z,100924.03
2022-12-15T21:58:33.217Z,100936.19
2022-12-15T22:01:03.662Z,100938.00
2022-12-15T22:03:33.905Z,100936.31
2022-12-15T22:06:03.640Z,100938.91
2022-12-15T22:08:33.739Z,100931.19
2022-12-15T22:11:19.046Z,100933.00
2022-12-15T22:13:48.798Z,100932.22
2022-12-15T22:16:19.125Z,100942.59
2022-12-15T22:18:54.972Z,100942.50
2022-12-15T22:21:25.399Z,100942.41
2022-12-15T22:23:55.300Z,100937.09
2022-12-15T22:26:31.799Z,100940.63
2022-12-15T22:29:04.100Z,100945.81
2022-12-15T22:31:33.840Z,100951.78
2022-12-15T22:34:03.602Z,100951.78
2022-12-15T22:36:33.314Z,100949.31
2022-12-15T22:39:08.096Z,100951.91
2022-12-15T22:41:43.775Z,100961.59
2022-12-15T22:44:20.346Z,100961.78
2022-12-15T22:46:51.432Z,100963.56
2022-12-15T22:49:24.531Z,100959.38
2022-12-15T22:51:54.976Z,100961.97
2022-12-15T22:54:26.415Z,100965.69
2022-12-15T22:57:04.097Z,100962.28
2022-12-15T22:59:39.015Z,100951.19
2022-12-15T23:02:08.848Z,100958.22
2022-12-15T23:04:38.883Z,100966.00
2022-12-15T23:07:11.831Z,100962.19
2022-12-15T23:09:41.608Z,100959.19
2022-12-15T23:12:11.625Z,100960.56
2022-12-15T23:14:53.715Z,100960.38
2022-12-15T23:17:24.774Z,100959.25
2022-12-15T23:19:54.477Z,100963.38
2022-12-15T23:22:24.170Z,100964.75
2022-12-15T23:24:53.920Z,100964.44
2022-12-15T23:27:26.449Z,100972.09
2022-12-15T23:29:56.188Z,100974.50
2022-12-15T23:32:25.932Z,100974.50
2022-12-15T23:34:55.680Z,100979.28
2022-12-15T23:37:25.419Z,100970.38
2022-12-15T23:39:55.112Z,100977.28
2022-12-15T23:42:27.541Z,100982.25
2022-12-15T23:44:57.315Z,100975.16
2022-12-15T23:47:27.032Z,100978.66
2022-12-15T23:49:56.729Z,100975.84
2022-12-15T23:52:26.424Z,100977.56
2022-12-15T23:54:56.270Z,100986.13
2022-12-15T23:57:28.756Z,100991.31
2022-12-15T23:59:58.480Z,101000.03
